createdAt,value
2022-12-25T00:01:12.700Z,18.15
2022-12-25T00:03:39.898Z,19.50
2022-12-25T00:06:07.320Z,17.55
2022-12-25T00:08:34.863Z,17.40
2022-12-25T00:11:04.452Z,17.23
2022-12-25T00:13:31.555Z,17.05
2022-12-25T00:15:58.874Z,16.45
2022-12-25T00:18:26.001Z,17.40
2022-12-25T00:21:00.841Z,16.45
2022-12-25T00:23:28.244Z,15.00
2022-12-25T00:25:55.217Z,16.38
2022-12-25T00:28:23.456Z,15.30
2022-12-25T00:30:51.258Z,16.08
2022-12-25T00:33:18.880Z,14.38
2022-12-25T00:35:57.488Z,15.32
2022-12-25T00:38:24.673Z,13.38
2022-12-25T00:40:52.314Z,13.90
2022-12-25T00:43:19.523Z,12.40
2022-12-25T00:45:55.615Z,13.00
2022-12-25T00:48:22.616Z,13.10
2022-12-25T00:50:52.898Z,14.27
2022-12-25T00:53:24.319Z,16.33
2022-12-25T00:55:56.809Z,15.07
2022-12-25T00:58:25.212Z,13.85
2022-12-25T01:00:52.499Z,14.07
2022-12-25T01:03:19.603Z,13.95
2022-12-25T01:05:59.505Z,13.10
2022-12-25T01:08:29.062Z,13.07
2022-12-25T01:10:58.067Z,12.68
2022-12-25T01:13:25.664Z,11.80
2022-12-25T01:15:52.828Z,12.85
2022-12-25T01:18:23.580Z,11.45
2022-12-25T01:20:50.920Z,11.37
2022-12-25T01:23:17.754Z,11.35
2022-12-25T01:25:44.588Z,11.27
2022-12-25T01:28:11.430Z,12.27
2022-12-25T01:30:38.321Z,10.65
2022-12-25T01:33:05.224Z,12.07
2022-12-25T01:35:32.215Z,10.27
2022-12-25T01:38:02.084Z,10.77
2022-12-25T01:40:28.920Z,9.98
2022-12-25T01:42:55.978Z,11.02
2022-12-25T01:45:43.906Z,11.13
2022-12-25T01:48:18.159Z,10.90
2022-12-25T01:50:49.781Z,10.98
2022-12-25T01:55:44.967Z,10.95
2022-12-25T01:58:12.057Z,10.57
2022-12-25T02:00:38.965Z,11.40
2022-12-25T02:03:06.237Z,10.18
2022-12-25T02:05:34.976Z,10.30
2022-12-25T02:08:07.939Z,11.00
2022-12-25T02:10:35.130Z,10.98
2022-12-25T02:13:02.929Z,10.27
2022-12-25T02:15:47.479Z,10.60
2022-12-25T02:18:39.024Z,10.20
2022-12-25T02:21:30.443Z,9.32
2022-12-25T02:24:16.671Z,9.70
2022-12-25T02:27:02.951Z,11.27
2022-12-25T02:29:42.421Z,10.68
2022-12-25T02:32:27.819Z,10.52
2022-12-25T02:35:07.197Z,9.98
2022-12-25T02:37:40.145Z,10.68
2022-12-25T02:40:15.808Z,10.05
2022-12-25T02:43:10.197Z,9.68
2022-12-25T02:46:05.115Z,8.18
2022-12-25T02:48:54.396Z,9.00
2022-12-25T02:51:42.178Z,9.15
2022-12-25T02:54:32.057Z,9.80
2022-12-25T02:57:20.937Z,8.77
2022-12-25T03:00:08.972Z,9.60
2022-12-25T03:02:55.642Z,9.02
2022-12-25T03:05:45.246Z,9.18
2022-12-25T03:08:16.776Z,9.00
2022-12-25T03:11:07.182Z,10.07
2022-12-25T03:13:38.985Z,9.60
2022-12-25T03:16:24.952Z,8.90
2022-12-25T03:18:53.731Z,9.27
2022-12-25T03:21:39.069Z,9.38
2022-12-25T03:24:24.917Z,9.60
2022-12-25T03:26:57.962Z,8.90
2022-12-25T03:29:51.988Z,9.73
2022-12-25T03:32:58.724Z,10.23
2022-12-25T03:35:49.604Z,9.82
2022-12-25T03:38:49.894Z,9.48
2022-12-25T03:41:42.042Z,9.93
2022-12-25T03:44:38.916Z,9.93
2022-12-25T03:47:37.074Z,10.25
2022-12-25T03:50:28.388Z,8.45
2022-12-25T03:53:17.249Z,8.70
2022-12-25T03:56:03.079Z,8.57
2022-12-25T03:58:48.467Z,18.98
2022-12-25T04:01:33.800Z,15.77
2022-12-25T04:04:19.262Z,14.05
2022-12-25T04:07:04.805Z,11.15
2022-12-25T04:09:50.340Z,10.30
2022-12-25T04:12:35.990Z,10.45
2022-12-25T04:15:21.507Z,9.40
2022-12-25T04:18:11.519Z,9.90
2022-12-25T04:20:57.145Z,9.90
2022-12-25T04:23:42.640Z,8.90
2022-12-25T04:26:28.246Z,8.88
2022-12-25T04:29:13.959Z,8.10
2022-12-25T04:31:59.448Z,9.18
2022-12-25T04:34:45.060Z,8.80
2022-12-25T04:37:12.054Z,8.27
2022-12-25T04:39:38.956Z,8.40
2022-12-25T04:42:06.357Z,9.07
2022-12-25T04:44:33.178Z,7.82
2022-12-25T04:47:01.108Z,9.13
2022-12-25T04:49:29.455Z,8.57
2022-12-25T04:51:56.422Z,7.78
2022-12-25T04:54:23.557Z,8.70
2022-12-25T04:56:50.422Z,9.10
2022-12-25T04:59:17.329Z,8.73
2022-12-25T05:01:44.339Z,9.35
2022-12-25T05:04:11.402Z,9.48
2022-12-25T05:06:39.067Z,9.25
2022-12-25T05:09:06.268Z,10.27
2022-12-25T05:11:33.157Z,9.55
2022-12-25T05:14:00.064Z,8.90
2022-12-25T05:16:27.263Z,9.02
2022-12-25T05:18:54.226Z,9.25
2022-12-25T05:21:21.205Z,9.57
2022-12-25T05:23:52.112Z,8.40
2022-12-25T05:26:22.887Z,8.15
2022-12-25T05:28:50.590Z,11.88
2022-12-25T05:31:17.789Z,14.68
2022-12-25T05:33:44.783Z,13.90
2022-12-25T05:36:12.589Z,10.52
2022-12-25T05:38:39.559Z,10.25
2022-12-25T05:41:06.997Z,10.88
2022-12-25T05:43:34.110Z,9.25
2022-12-25T05:46:06.499Z,7.97
2022-12-25T05:48:36.068Z,8.35
2022-12-25T05:51:07.780Z,9.00
2022-12-25T05:53:35.449Z,8.10
2022-12-25T05:56:04.364Z,8.05
2022-12-25T05:58:33.172Z,8.60
2022-12-25T06:01:00.501Z,8.32
2022-12-25T06:03:27.813Z,9.07
2022-12-25T06:05:55.444Z,8.57
2022-12-25T06:08:22.312Z,7.90
2022-12-25T06:10:49.637Z,8.98
2022-12-25T06:13:16.495Z,9.13
2022-12-25T06:15:43.524Z,8.50
2022-12-25T06:18:10.488Z,9.05
2022-12-25T06:20:41.056Z,8.43
2022-12-25T06:23:07.964Z,8.00
2022-12-25T06:25:34.981Z,9.82
2022-12-25T06:28:01.823Z,8.95
2022-12-25T06:30:28.758Z,8.55
2022-12-25T06:32:55.674Z,9.32
2022-12-25T06:35:22.566Z,8.57
2022-12-25T06:37:49.455Z,9.05
2022-12-25T06:40:16.537Z,8.15
2022-12-25T06:42:43.425Z,7.90
2022-12-25T06:45:11.392Z,8.65
2022-12-25T06:47:38.499Z,8.52
2022-12-25T06:50:06.569Z,9.02
2022-12-25T06:52:33.828Z,9.20
2022-12-25T06:55:00.739Z,12.27
2022-12-25T06:57:27.610Z,11.35
2022-12-25T06:59:55.459Z,10.63
2022-12-25T07:02:24.558Z,10.82
2022-12-25T07:04:52.509Z,10.23
2022-12-25T07:07:20.798Z,9.65
2022-12-25T07:09:47.669Z,9.30
2022-12-25T07:12:17.341Z,9.63
2022-12-25T07:14:45.733Z,10.13
2022-12-25T07:17:12.655Z,9.48
2022-12-25T07:19:44.701Z,9.13
2022-12-25T07:22:12.381Z,9.60
2022-12-25T07:24:39.482Z,9.23
2022-12-25T07:27:06.464Z,9.20
2022-12-25T07:29:33.352Z,9.00
2022-12-25T07:32:00.289Z,8.48
2022-12-25T07:34:27.154Z,9.88
2022-12-25T07:36:55.272Z,9.30
2022-12-25T07:39:23.791Z,9.38
2022-12-25T07:41:51.377Z,9.15
2022-12-25T07:44:18.677Z,9.88
2022-12-25T07:46:45.544Z,9.45
2022-12-25T07:49:12.782Z,9.82
2022-12-25T07:51:40.099Z,9.52
2022-12-25T07:54:07.390Z,9.30
2022-12-25T07:56:34.313Z,9.52
2022-12-25T07:59:01.276Z,11.38
2022-12-25T08:01:28.724Z,10.48
2022-12-25T08:04:01.111Z,10.38
2022-12-25T08:06:31.703Z,9.52
2022-12-25T08:09:06.758Z,10.63
2022-12-25T08:11:33.665Z,11.43
2022-12-25T08:14:00.967Z,15.77
2022-12-25T08:16:27.995Z,13.32
2022-12-25T08:18:54.939Z,12.95
2022-12-25T08:21:21.963Z,14.43
2022-12-25T08:23:48.818Z,13.00
2022-12-25T08:26:22.806Z,13.05
2022-12-25T08:28:50.424Z,11.85
2022-12-25T08:31:29.419Z,11.60
2022-12-25T08:33:58.141Z,12.27
2022-12-25T08:36:25.511Z,11.57
2022-12-25T08:38:56.960Z,11.25
2022-12-25T08:41:27.689Z,12.43
2022-12-25T08:43:54.751Z,11.65
2022-12-25T08:46:21.704Z,12.68
2022-12-25T08:48:49.870Z,12.68
2022-12-25T08:51:19.638Z,13.23
2022-12-25T08:53:48.823Z,13.75
2022-12-25T08:56:16.884Z,12.73
2022-12-25T08:58:43.844Z,14.70
2022-12-25T09:01:11.674Z,14.75
2022-12-25T09:03:38.743Z,14.65
2022-12-25T09:06:11.109Z,15.65
2022-12-25T09:08:44.035Z,14.85
2022-12-25T09:11:15.366Z,15.68
2022-12-25T09:13:42.443Z,13.80
2022-12-25T09:16:15.519Z,13.68
2022-12-25T09:18:42.461Z,12.57
2022-12-25T09:21:11.836Z,13.00
2022-12-25T09:23:38.720Z,12.55
2022-12-25T09:26:07.754Z,13.73
2022-12-25T09:28:35.173Z,13.32
2022-12-25T09:31:03.917Z,12.75
2022-12-25T09:33:31.043Z,17.70
2022-12-25T09:36:01.026Z,15.95
2022-12-25T09:38:28.127Z,13.77
2022-12-25T09:41:08.202Z,12.77
2022-12-25T09:43:42.852Z,13.88
2022-12-25T09:46:17.254Z,13.15
2022-12-25T09:48:57.972Z,11.52
2022-12-25T09:51:27.849Z,12.47
2022-12-25T09:54:04.534Z,13.10
2022-12-25T09:56:33.630Z,13.23
2022-12-25T09:59:00.499Z,12.50
2022-12-25T10:01:42.615Z,12.45
2022-12-25T10:04:15.182Z,12.30
2022-12-25T10:06:58.549Z,13.15
2022-12-25T10:09:51.966Z,13.43
2022-12-25T10:12:27.217Z,12.32
2022-12-25T10:15:21.889Z,12.70
2022-12-25T10:17:54.618Z,13.18
2022-12-25T10:20:21.480Z,12.23
2022-12-25T10:22:53.055Z,13.05
2022-12-25T10:28:03.133Z,12.45
2022-12-25T10:30:30.882Z,12.43
2022-12-25T10:32:58.630Z,13.32
2022-12-25T10:35:28.531Z,12.93
2022-12-25T10:38:17.091Z,11.70
2022-12-25T10:41:02.762Z,11.88
2022-12-25T10:43:51.599Z,12.90
2022-12-25T10:46:20.072Z,12.88
2022-12-25T10:48:51.788Z,12.80
2022-12-25T10:51:37.060Z,12.90
2022-12-25T10:54:19.271Z,12.52
2022-12-25T10:57:07.930Z,13.55
2022-12-25T10:59:41.795Z,12.07
2022-12-25T11:02:26.146Z,13.45
2022-12-25T11:05:10.240Z,14.48
2022-12-25T11:07:46.714Z,12.82
2022-12-25T11:10:32.861Z,12.32
2022-12-25T11:13:01.099Z,13.55
2022-12-25T11:15:39.988Z,12.05
2022-12-25T11:18:22.412Z,12.60
2022-12-25T11:20:53.442Z,14.02
2022-12-25T11:23:22.452Z,12.75
2022-12-25T11:26:05.715Z,13.25
2022-12-25T11:28:34.860Z,12.48
2022-12-25T11:31:20.470Z,11.70
2022-12-25T11:33:56.226Z,14.18
2022-12-25T11:36:32.856Z,12.90
2022-12-25T11:39:20.541Z,12.95
2022-12-25T11:41:48.462Z,12.88
2022-12-25T11:44:56.404Z,12.85
2022-12-25T11:47:38.448Z,16.23
2022-12-25T11:50:29.441Z,16.80
2022-12-25T11:52:59.842Z,15.53
2022-12-25T11:55:39.807Z,13.70
2022-12-25T11:58:24.914Z,12.93
2022-12-25T12:00:54.269Z,13.57
2022-12-25T12:03:27.282Z,13.50
2022-12-25T12:06:06.535Z,12.15
2022-12-25T12:08:34.540Z,10.85
2022-12-25T12:11:18.685Z,10.93
2022-12-25T12:14:04.235Z,11.07
2022-12-25T12:16:31.568Z,11.48
2022-12-25T12:18:58.613Z,11.35
2022-12-25T12:21:29.973Z,10.57
2022-12-25T12:24:06.007Z,12.52
2022-12-25T12:26:40.939Z,11.48
2022-12-25T12:29:22.096Z,11.70
2022-12-25T12:31:51.038Z,12.07
2022-12-25T12:34:25.741Z,12.85
2022-12-25T12:36:59.294Z,12.15
2022-12-25T12:39:32.241Z,12.63
2022-12-25T12:41:59.211Z,12.05
2022-12-25T12:44:31.243Z,11.98
2022-12-25T12:46:58.286Z,11.77
2022-12-25T12:49:28.030Z,13.35
2022-12-25T12:52:20.377Z,12.88
2022-12-25T12:54:56.972Z,11.48
2022-12-25T12:57:27.451Z,11.38
2022-12-25T12:59:54.277Z,12.35
2022-12-25T13:03:01.103Z,12.65
2022-12-25T13:05:48.108Z,13.10
2022-12-25T13:08:33.630Z,13.57
2022-12-25T13:11:32.640Z,14.77
2022-12-25T13:14:03.001Z,14.63
2022-12-25T13:16:31.091Z,14.55
2022-12-25T13:19:00.320Z,14.02
2022-12-25T13:21:29.170Z,13.43
2022-12-25T13:23:58.160Z,13.30
2022-12-25T13:26:25.168Z,13.10
2022-12-25T13:28:52.175Z,14.25
2022-12-25T13:31:21.739Z,13.15
2022-12-25T13:34:17.324Z,14.85
2022-12-25T13:36:44.257Z,14.52
2022-12-25T13:39:16.625Z,14.57
2022-12-25T13:42:10.030Z,14.75
2022-12-25T13:44:40.056Z,16.00
2022-12-25T13:47:25.375Z,14.57
2022-12-25T13:49:54.835Z,13.98
2022-12-25T13:52:28.225Z,13.30
2022-12-25T13:55:00.892Z,12.25
2022-12-25T13:57:49.694Z,12.35
2022-12-25T14:00:23.696Z,10.77
2022-12-25T14:02:51.559Z,11.07
2022-12-25T14:05:29.368Z,10.50
2022-12-25T14:08:01.667Z,9.93
2022-12-25T14:10:34.160Z,11.20
2022-12-25T14:13:04.756Z,10.23
2022-12-25T14:15:33.792Z,10.18
2022-12-25T14:18:01.031Z,10.52
2022-12-25T14:20:32.166Z,11.23
2022-12-25T14:23:00.800Z,10.00
2022-12-25T14:25:33.799Z,10.85
2022-12-25T14:28:06.162Z,9.50
2022-12-25T14:30:33.279Z,11.88
2022-12-25T14:33:02.654Z,9.57
2022-12-25T14:35:29.617Z,10.40
2022-12-25T14:38:00.224Z,10.00
2022-12-25T14:40:32.732Z,13.50
2022-12-25T14:43:02.119Z,12.93
2022-12-25T14:45:33.801Z,9.82
2022-12-25T14:50:39.735Z,8.82
2022-12-25T14:53:19.051Z,8.30
2022-12-25T14:55:52.889Z,7.85
2022-12-25T14:58:28.447Z,6.93
2022-12-25T15:01:04.019Z,7.07
2022-12-25T15:03:38.112Z,7.07
2022-12-25T15:06:07.518Z,8.05
2022-12-25T15:08:35.231Z,10.30
2022-12-25T15:11:03.404Z,7.07
2022-12-25T15:13:31.465Z,5.53
2022-12-25T15:16:14.908Z,5.88
2022-12-25T15:18:44.632Z,5.82
2022-12-25T15:21:24.816Z,5.53
2022-12-25T15:23:53.759Z,5.28
2022-12-25T15:26:20.671Z,5.93
2022-12-25T15:28:47.922Z,6.30
2022-12-25T15:31:32.163Z,7.32
2022-12-25T15:34:02.544Z,6.20
2022-12-25T15:36:30.152Z,6.72
2022-12-25T15:38:57.409Z,6.78
2022-12-25T15:42:01.949Z,6.53
2022-12-25T15:44:28.871Z,5.43
2022-12-25T15:46:55.743Z,5.75
2022-12-25T15:49:22.618Z,7.00
2022-12-25T15:51:49.560Z,6.45
2022-12-25T15:54:16.603Z,5.85
2022-12-25T15:56:46.817Z,6.47
2022-12-25T15:59:15.241Z,7.72
2022-12-25T16:01:46.076Z,7.13
2022-12-25T16:04:13.080Z,7.18
2022-12-25T16:06:39.975Z,7.22
2022-12-25T16:09:07.381Z,6.22
2022-12-25T16:11:34.323Z,6.40
2022-12-25T16:14:01.179Z,6.00
2022-12-25T16:16:28.078Z,5.10
2022-12-25T16:18:55.063Z,5.40
2022-12-25T16:21:23.069Z,6.68
2022-12-25T16:23:50.315Z,8.02
2022-12-25T16:26:17.274Z,7.43
2022-12-25T16:28:44.166Z,7.30
2022-12-25T16:31:12.064Z,5.97
2022-12-25T16:33:39.021Z,6.65
2022-12-25T16:36:06.155Z,5.47
2022-12-25T16:38:34.083Z,5.05
2022-12-25T16:41:01.792Z,5.38
2022-12-25T16:43:28.783Z,5.00
2022-12-25T16:45:57.333Z,4.68
2022-12-25T16:48:24.497Z,4.88
2022-12-25T16:50:51.324Z,4.70
2022-12-25T16:53:18.165Z,6.82
2022-12-25T16:55:45.025Z,9.82
2022-12-25T16:58:11.873Z,6.15
2022-12-25T17:00:38.673Z,6.45
2022-12-25T17:03:05.747Z,6.97
2022-12-25T17:05:33.792Z,8.85
2022-12-25T17:08:01.320Z,7.82
2022-12-25T17:10:28.196Z,8.45
2022-12-25T17:12:55.025Z,7.68
2022-12-25T17:15:22.088Z,6.88
2022-12-25T17:17:48.909Z,7.05
2022-12-25T17:20:15.847Z,8.30
2022-12-25T17:22:42.673Z,6.18
2022-12-25T17:25:09.833Z,12.77
2022-12-25T17:27:36.727Z,7.18
2022-12-25T17:30:03.813Z,7.90
2022-12-25T17:32:30.586Z,7.72
2022-12-25T17:34:57.429Z,8.77
2022-12-25T17:37:25.133Z,7.78
2022-12-25T17:39:52.032Z,7.18
2022-12-25T17:42:18.858Z,5.38
2022-12-25T17:44:46.430Z,5.13
2022-12-25T17:47:13.292Z,5.32
2022-12-25T17:49:40.183Z,4.68
2022-12-25T17:52:07.129Z,5.00
2022-12-25T17:54:34.235Z,4.28
2022-12-25T17:57:01.236Z,5.00
2022-12-25T17:59:29.676Z,3.90
2022-12-25T18:01:56.694Z,4.63
2022-12-25T18:04:24.533Z,5.60
2022-12-25T18:06:51.474Z,5.25
2022-12-25T18:09:19.920Z,4.82
2022-12-25T18:11:46.883Z,5.13
2022-12-25T18:14:15.998Z,5.50
2022-12-25T18:16:45.102Z,5.00
2022-12-25T18:19:13.717Z,5.35
2022-12-25T18:21:40.585Z,5.15
2022-12-25T18:24:08.519Z,5.40
2022-12-25T18:26:35.703Z,5.40
2022-12-25T18:29:03.073Z,5.05
2022-12-25T18:31:32.821Z,8.65
2022-12-25T18:34:00.368Z,7.10
2022-12-25T18:36:28.416Z,9.70
2022-12-25T18:38:55.679Z,6.20
2022-12-25T18:41:23.346Z,7.07
2022-12-25T18:43:53.959Z,6.22
2022-12-25T18:46:27.236Z,6.18
2022-12-25T18:48:57.408Z,5.53
2022-12-25T18:51:26.738Z,4.93
2022-12-25T18:53:58.094Z,4.13
2022-12-25T18:56:24.890Z,4.88
2022-12-25T18:58:51.675Z,4.95
2022-12-25T19:01:21.569Z,4.70
2022-12-25T19:03:49.573Z,4.53
2022-12-25T19:06:27.462Z,4.40
2022-12-25T19:08:55.593Z,4.93
2022-12-25T19:11:23.110Z,3.97
2022-12-25T19:13:49.993Z,3.88
2022-12-25T19:16:16.981Z,4.25
2022-12-25T19:18:44.172Z,3.58
2022-12-25T19:21:11.246Z,5.25
2022-12-25T19:23:38.869Z,4.35
2022-12-25T19:26:07.503Z,4.40
2022-12-25T19:28:34.981Z,4.70
2022-12-25T19:31:03.279Z,4.78
2022-12-25T19:33:33.628Z,9.10
2022-12-25T19:36:01.489Z,11.60
2022-12-25T19:38:28.586Z,7.45
2022-12-25T19:41:01.357Z,6.80
2022-12-25T19:43:28.236Z,7.88
2022-12-25T19:45:55.274Z,4.90
2022-12-25T19:48:22.384Z,4.53
2022-12-25T19:50:49.535Z,4.63
2022-12-25T19:53:17.097Z,4.38
2022-12-25T19:55:44.953Z,4.38
2022-12-25T19:58:12.478Z,4.65
2022-12-25T20:00:40.425Z,3.90
2022-12-25T20:03:08.081Z,4.38
2022-12-25T20:05:35.567Z,4.13
2022-12-25T20:08:02.710Z,3.72
2022-12-25T20:10:29.682Z,4.38
2022-12-25T20:12:56.496Z,9.73
2022-12-25T20:15:23.293Z,6.28
2022-12-25T20:17:50.129Z,4.25
2022-12-25T20:20:17.024Z,5.10
2022-12-25T20:22:43.850Z,4.65
2022-12-25T20:25:11.462Z,5.00
2022-12-25T20:27:38.348Z,4.85
2022-12-25T20:30:05.849Z,4.40
2022-12-25T20:32:32.642Z,4.28
2022-12-25T20:34:59.441Z,4.55
2022-12-25T20:37:26.253Z,4.15
2022-12-25T20:39:53.088Z,3.92
2022-12-25T20:42:20.389Z,4.55
2022-12-25T20:44:47.358Z,4.07
2022-12-25T20:47:14.264Z,3.58
2022-12-25T20:49:41.092Z,3.13
2022-12-25T20:52:08.096Z,3.33
2022-12-25T20:54:35.119Z,3.50
2022-12-25T20:57:02.154Z,4.47
2022-12-25T20:59:35.152Z,4.25
2022-12-25T21:02:04.355Z,3.30
2022-12-25T21:04:31.336Z,3.58
2022-12-25T21:06:58.260Z,4.90
2022-12-25T21:09:25.222Z,3.88
2022-12-25T21:11:52.213Z,3.97
2022-12-25T21:14:19.080Z,3.53
2022-12-25T21:16:46.117Z,4.55
2022-12-25T21:19:13.357Z,4.72
2022-12-25T21:21:42.833Z,4.70
2022-12-25T21:24:10.271Z,5.22
2022-12-25T21:26:39.151Z,4.50
2022-12-25T21:29:09.415Z,5.25
2022-12-25T21:31:56.322Z,3.65
2022-12-25T21:34:23.293Z,3.80
2022-12-25T21:36:50.204Z,3.85
2022-12-25T21:39:17.209Z,4.18
2022-12-25T21:41:44.031Z,3.83
2022-12-25T21:44:11.649Z,4.38
2022-12-25T21:46:39.731Z,4.57
2022-12-25T21:49:06.697Z,4.43
2022-12-25T21:51:53.104Z,3.88
2022-12-25T21:54:21.493Z,4.22
2022-12-25T21:56:49.134Z,3.13
2022-12-25T21:59:22.465Z,3.75
2022-12-25T22:01:51.014Z,4.38
2022-12-25T22:04:20.365Z,3.90
2022-12-25T22:07:06.518Z,3.80
2022-12-25T22:09:33.782Z,3.38
2022-12-25T22:12:19.202Z,3.70
2022-12-25T22:14:57.040Z,3.53
2022-12-25T22:18:00.347Z,3.97
2022-12-25T22:20:34.791Z,4.03
2022-12-25T22:23:02.761Z,4.25
2022-12-25T22:25:29.775Z,4.20
2022-12-25T22:27:57.413Z,4.00
2022-12-25T22:30:27.309Z,4.28
2022-12-25T22:32:54.243Z,4.30
2022-12-25T22:35:21.567Z,4.63
2022-12-25T22:37:49.682Z,3.80
2022-12-25T22:40:18.290Z,4.35
2022-12-25T22:42:45.193Z,3.97
2022-12-25T22:45:12.572Z,4.28
2022-12-25T22:47:39.863Z,4.45
2022-12-25T22:50:07.614Z,4.50
2022-12-25T22:52:34.838Z,4.57
2022-12-25T22:55:02.550Z,5.10
2022-12-25T22:57:29.592Z,4.47
2022-12-25T22:59:56.504Z,4.13
2022-12-25T23:02:23.772Z,5.15
2022-12-25T23:04:51.072Z,5.40
2022-12-25T23:07:18.235Z,5.43
2022-12-25T23:09:45.423Z,4.93
2022-12-25T23:12:32.297Z,5.68
2022-12-25T23:14:59.187Z,8.45
2022-12-25T23:17:44.873Z,6.50
2022-12-25T23:20:33.107Z,5.30
2022-12-25T23:23:18.802Z,3.95
2022-12-25T23:26:04.175Z,3.80
2022-12-25T23:28:49.582Z,4.93
2022-12-25T23:31:16.811Z,4.07
2022-12-25T23:33:43.801Z,4.80
2022-12-25T23:36:10.703Z,4.75
2022-12-25T23:38:37.552Z,4.28
2022-12-25T23:41:04.458Z,3.35
2022-12-25T23:43:31.304Z,4.15
2022-12-25T23:45:58.143Z,5.00
2022-12-25T23:48:25.008Z,4.57
2022-12-25T23:50:51.902Z,4.35
2022-12-25T23:53:18.833Z,4.63
2022-12-25T23:55:50.075Z,4.93
2022-12-25T23:58:21.522Z,4.53
